Time;durP1;ratioP1;P1;durP2;ratioP2;P2;SDS_P1;SDS_P2;PMS_P1;PMS_P2;Temp;Humidity;BMP_temperature;BMP_pressure;BME280_temperature;BME280_humidity;BME280_pressure;Samples;Min_cycle;Max_cycle;Signal;HPM_P1;HPM_P2
2023/08/09 00:00:43;;;;;;;3.17;3.08;;;18.40;99.90;;;18.66;89.26;101118.09;5066061;28;20075;-65
2023/08/09 00:03:12;;;;;;;2.72;2.63;;;18.40;99.90;;;18.65;89.45;101119.03;5055755;28;20064;-65
2023/08/09 00:05:40;;;;;;;3.03;2.92;;;18.30;99.90;;;18.59;89.33;101116.56;5055972;28;20375;-65
2023/08/09 00:08:10;;;;;;;3.08;2.97;;;18.30;99.90;;;18.59;89.21;101132.63;5055655;28;20502;-65
2023/08/09 00:10:38;;;;;;;3.10;3.00;;;18.20;99.90;;;18.49;89.47;101128.50;5057065;28;20077;-65
2023/08/09 00:13:07;;;;;;;2.88;2.78;;;18.10;99.90;;;18.36;89.80;101124.44;5065343;28;20052;-65
2023/08/09 00:15:35;;;;;;;2.83;2.72;;;18.00;99.90;;;18.27;90.17;101132.78;5065420;28;20533;-65
2023/08/09 00:18:04;;;;;;;3.45;3.35;;;17.90;99.90;;;18.19;90.25;101140.16;5071419;28;20053;-65
2023/08/09 00:20:33;;;;;;;2.70;2.60;;;17.80;99.90;;;18.14;90.74;101134.06;5066108;28;20044;-64
2023/08/09 00:23:01;;;;;;;2.90;2.80;;;17.70;99.90;;;18.08;91.31;101139.59;5063497;28;20045;-65
2023/08/09 00:25:31;;;;;;;3.08;2.97;;;17.60;99.90;;;18.02;91.70;101139.81;5055261;28;20379;-65
2023/08/09 00:28:00;;;;;;;2.93;2.83;;;17.60;99.90;;;18.03;91.55;101145.13;5079299;28;20406;-64
2023/08/09 00:30:28;;;;;;;3.20;3.10;;;17.60;99.90;;;17.96;91.36;101140.00;5081876;28;20485;-65
2023/08/09 00:32:57;;;;;;;3.15;3.05;;;17.50;99.90;;;17.82;90.48;101140.41;5059855;28;20053;-65
2023/08/09 00:35:26;;;;;;;3.05;2.95;;;17.40;99.90;;;17.68;90.87;101139.94;5064684;28;20132;-65
2023/08/09 00:37:55;;;;;;;2.80;2.70;;;17.30;99.90;;;17.76;91.21;101142.38;5064688;28;20052;-65
2023/08/09 00:40:24;;;;;;;3.03;2.92;;;17.30;99.90;;;17.73;91.82;101137.13;5065737;28;20046;-65
2023/08/09 00:42:54;;;;;;;3.35;3.25;;;17.30;99.90;;;17.73;91.79;101143.34;5063785;28;20094;-64
2023/08/09 00:45:22;;;;;;;3.10;3.00;;;17.30;99.90;;;17.65;91.47;101140.00;5066323;28;20055;-65
2023/08/09 00:47:52;;;;;;;2.80;2.70;;;17.20;99.90;;;17.69;91.71;101143.50;5054825;28;20041;-65
2023/08/09 00:50:21;;;;;;;3.30;3.20;;;17.20;99.90;;;17.69;91.90;101154.19;5064903;28;20065;-65
2023/08/09 00:52:49;;;;;;;3.05;2.95;;;17.20;99.90;;;17.69;91.49;101144.34;5054719;28;20040;-65
2023/08/09 00:55:18;;;;;;;3.50;3.40;;;17.30;99.90;;;17.72;91.68;101148.75;5054616;28;20044;-65
2023/08/09 00:57:49;;;;;;;2.97;2.88;;;17.30;99.90;;;17.71;91.86;101152.34;5071532;28;20053;-65
2023/08/09 01:00:19;;;;;;;2.95;2.85;;;17.30;99.90;;;17.64;91.82;101148.97;5060129;28;20045;-65
2023/08/09 01:02:48;;;;;;;3.33;3.23;;;17.20;99.90;;;17.61;91.86;101158.88;5071919;28;20052;-65
2023/08/09 01:05:17;;;;;;;3.10;3.00;;;17.20;99.90;;;17.61;91.94;101158.88;5062700;28;20334;-65
2023/08/09 01:07:52;;;;;;;3.28;3.17;;;17.10;99.90;;;17.60;91.67;101151.75;5052985;28;20103;-64
2023/08/09 01:10:30;;;;;;;2.85;2.75;;;17.20;99.90;;;17.57;91.33;101176.81;5063515;28;20486;-65
2023/08/09 01:13:04;;;;;;;3.05;2.95;;;17.20;99.90;;;17.58;91.24;101158.97;5062913;28;20041;-65
2023/08/09 01:15:35;;;;;;;3.30;3.20;;;17.10;99.90;;;17.46;90.84;101136.06;5054479;28;20049;-64
2023/08/09 01:18:05;;;;;;;2.80;2.70;;;17.10;99.90;;;17.54;90.60;101154.63;5054316;28;20049;-65
2023/08/09 01:20:35;;;;;;;3.47;3.38;;;17.10;99.90;;;17.38;90.85;101156.81;5054005;28;20045;-66
2023/08/09 01:23:11;;;;;;;4.65;4.43;;;17.00;99.90;;;17.21;91.36;101134.16;5063139;28;20049;-65
2023/08/09 01:25:41;;;;;;;3.13;3.03;;;16.90;99.90;;;16.94;91.70;101074.28;5062236;28;20037;-65
2023/08/09 01:28:10;;;;;;;3.40;3.30;;;17.00;99.90;;;17.44;91.81;101164.66;5054183;28;20049;-65
2023/08/09 01:30:38;;;;;;;3.20;3.10;;;17.00;99.90;;;17.44;92.18;101155.78;5064513;28;20049;-66
2023/08/09 01:33:07;;;;;;;3.25;3.15;;;17.00;99.90;;;17.48;92.57;101168.16;5053750;28;20048;-65
2023/08/09 01:35:44;;;;;;;2.90;2.80;;;17.00;99.90;;;16.89;92.64;101066.41;5055185;28;20048;-65
2023/08/09 01:38:21;;;;;;;3.55;3.45;;;17.00;99.90;;;17.46;92.78;101172.66;5069627;28;20106;-65
2023/08/09 01:40:52;;;;;;;3.20;3.10;;;17.00;99.90;;;17.45;93.16;101162.88;5061973;28;20044;-64
2023/08/09 01:43:23;;;;;;;3.28;3.17;;;17.00;99.90;;;17.49;93.22;101169.94;5064409;28;20090;-65
2023/08/09 01:45:54;;;;;;;3.53;3.42;;;17.00;99.90;;;17.47;92.89;101167.25;5059376;28;20136;-67
2023/08/09 01:48:22;;;;;;;2.97;2.88;;;17.00;99.90;;;17.42;92.79;101173.66;5064238;28;20052;-65
2023/08/09 01:50:50;;;;;;;3.28;3.17;;;17.00;99.90;;;17.41;92.76;101175.44;5062639;28;20069;-64
2023/08/09 01:53:19;;;;;;;3.60;3.50;;;17.00;99.90;;;17.37;93.03;101175.56;5060503;28;20106;-65
2023/08/09 01:55:47;;;;;;;3.13;3.03;;;16.90;99.90;;;17.34;93.11;101181.00;5077937;28;20050;-65
2023/08/09 01:58:18;;;;;;;3.40;3.30;;;16.90;99.90;;;17.37;93.03;101178.25;5069259;28;20508;-64
2023/08/09 02:00:46;;;;;;;3.33;3.22;;;16.90;99.90;;;17.38;93.06;101177.34;5069166;28;20140;-64
2023/08/09 02:03:14;;;;;;;3.10;3.00;;;16.90;99.90;;;17.39;92.94;101176.41;5053378;28;20057;-65
2023/08/09 02:05:43;;;;;;;3.10;3.00;;;17.00;99.90;;;17.41;92.44;101178.13;5055520;28;20052;-64
2023/08/09 02:08:12;;;;;;;2.95;2.85;;;17.00;99.90;;;17.38;92.25;101180.00;5063847;28;20083;-65
2023/08/09 02:10:41;;;;;;;3.15;3.05;;;17.00;99.90;;;17.41;92.00;101182.59;5064086;28;20140;-64
2023/08/09 02:13:09;;;;;;;3.05;2.95;;;17.00;99.90;;;17.50;91.83;101195.78;5069546;28;20959;-65
2023/08/09 02:15:39;;;;;;;2.70;2.60;;;17.10;99.90;;;17.57;91.81;101198.22;5064798;28;20118;-65
2023/08/09 02:18:13;;;;;;;3.30;3.20;;;17.20;99.90;;;17.63;91.76;101197.19;5065741;28;20056;-64
2023/08/09 02:20:41;;;;;;;3.00;2.90;;;17.20;99.90;;;17.70;91.75;101198.75;5064471;28;20048;-65
2023/08/09 02:23:09;;;;;;;3.10;3.00;;;17.30;99.90;;;17.80;91.91;101202.94;5061768;28;20064;-65
2023/08/09 02:25:38;;;;;;;3.28;3.17;;;17.40;99.90;;;17.81;91.89;101210.00;5063529;28;20052;-65
2023/08/09 02:28:08;;;;;;;3.83;3.63;;;17.50;99.90;;;17.85;91.69;101209.91;5063003;28;20061;-64
2023/08/09 02:30:36;;;;;;;3.03;2.92;;;17.50;99.90;;;17.90;91.42;101209.78;5069516;28;20048;-65
2023/08/09 02:33:06;;;;;;;3.00;2.90;;;17.50;99.90;;;17.80;91.07;101209.16;5063863;28;20533;-64
2023/08/09 02:35:53;;;;;;;3.20;3.10;;;17.50;99.90;;;17.74;90.93;101201.31;5077272;28;20057;-65
2023/08/09 02:38:22;;;;;;;3.20;3.10;;;17.40;99.90;;;17.79;90.90;101217.22;5063649;28;20402;-65
2023/08/09 02:40:51;;;;;;;3.00;2.90;;;17.40;99.90;;;17.68;90.90;101203.25;5061161;28;20479;-65
2023/08/09 02:43:20;;;;;;;3.13;3.03;;;17.40;99.90;;;17.80;90.65;101218.97;5059800;28;20069;-65
2023/08/09 02:45:49;;;;;;;3.35;3.25;;;17.50;99.90;;;17.82;90.98;101223.38;5064538;28;20094;-65
2023/08/09 02:48:19;;;;;;;3.17;3.08;;;17.50;99.90;;;17.87;91.06;101218.75;5051834;28;20148;-64
2023/08/09 02:50:48;;;;;;;2.83;2.72;;;17.50;99.90;;;17.90;90.95;101217.81;5059821;28;20052;-65
2023/08/09 02:53:16;;;;;;;2.90;2.80;;;17.50;99.90;;;17.91;90.98;101214.19;5058094;28;20103;-65
2023/08/09 02:55:45;;;;;;;2.72;2.63;;;17.60;99.90;;;17.94;90.98;101216.78;5070224;28;20826;-65
2023/08/09 02:58:14;;;;;;;2.83;2.72;;;17.60;99.90;;;17.93;90.78;101215.03;5062978;28;20041;-65
2023/08/09 03:00:42;;;;;;;3.03;2.92;;;17.60;99.90;;;17.97;90.62;101222.94;5062468;28;20051;-65
2023/08/09 03:03:11;;;;;;;2.83;2.72;;;17.60;99.90;;;17.99;90.71;101225.56;5058615;28;20057;-65
2023/08/09 03:05:49;;;;;;;3.30;3.20;;;17.60;99.90;;;17.33;90.87;101132.00;5076337;28;20057;-64
2023/08/09 03:08:18;;;;;;;3.33;3.22;;;17.50;99.90;;;17.81;91.26;101221.59;5079432;28;20045;-65
2023/08/09 03:10:46;;;;;;;2.90;2.80;;;17.50;99.90;;;17.90;90.89;101231.19;5057523;28;20048;-65
2023/08/09 03:13:17;;;;;;;2.88;2.78;;;17.50;99.90;;;17.96;90.97;101231.88;5078207;28;20486;-65
2023/08/09 03:15:46;;;;;;;3.42;3.33;;;17.60;99.90;;;18.02;91.24;101233.53;5077778;28;20048;-65
2023/08/09 03:18:14;;;;;;;4.15;3.95;;;17.60;99.90;;;18.06;91.22;101232.47;5063494;28;20040;-65
2023/08/09 03:20:43;;;;;;;2.90;2.80;;;17.70;99.90;;;18.06;91.36;101227.13;5068257;28;20140;-64
2023/08/09 03:23:14;;;;;;;2.70;2.60;;;17.70;99.90;;;18.10;91.40;101239.50;5059230;28;20406;-65
2023/08/09 03:25:43;;;;;;;3.22;3.13;;;17.80;99.90;;;18.14;91.55;101234.97;5051426;28;20529;-65
2023/08/09 03:28:13;;;;;;;2.95;2.85;;;17.80;99.90;;;18.16;91.47;101238.44;5068015;28;20049;-65
2023/08/09 03:30:42;;;;;;;3.05;2.95;;;17.80;99.90;;;18.15;91.53;101242.94;5051262;28;20136;-65
2023/08/09 03:33:11;;;;;;;2.95;2.85;;;17.80;99.90;;;18.18;91.43;101240.16;5057877;28;20057;-65
2023/08/09 03:35:41;;;;;;;3.00;2.90;;;17.80;99.90;;;18.20;91.40;101241.00;5065794;28;20051;-64
2023/08/09 03:38:10;;;;;;;3.00;2.90;;;17.80;99.90;;;18.20;91.24;101241.00;5065938;28;20329;-64
2023/08/09 03:40:40;;;;;;;2.80;2.70;;;17.80;99.90;;;18.22;91.01;101243.63;5063194;28;20487;-65
2023/08/09 03:43:09;;;;;;;2.88;2.78;;;17.90;99.90;;;18.23;91.04;101248.94;5079964;28;20041;-65
2023/08/09 03:45:37;;;;;;;3.08;2.97;;;17.90;99.90;;;18.22;90.78;101249.84;5056414;28;20045;-64
2023/08/09 03:48:06;;;;;;;2.92;2.83;;;17.90;99.90;;;18.24;91.13;101252.47;5072109;28;20139;-65
2023/08/09 03:50:35;;;;;;;3.00;2.90;;;17.90;99.90;;;18.27;91.01;101255.09;5065551;28;20057;-65
2023/08/09 03:53:04;;;;;;;2.90;2.80;;;17.90;99.90;;;18.28;90.78;101257.72;5063064;28;20056;-64
2023/08/09 03:55:33;;;;;;;3.00;2.90;;;17.90;99.90;;;18.29;90.71;101261.28;5061842;28;20045;-65
2023/08/09 03:58:03;;;;;;;3.03;2.92;;;17.90;99.90;;;18.32;90.87;101264.75;5066764;28;20049;-64
2023/08/09 04:00:32;;;;;;;2.97;2.88;;;17.90;99.90;;;18.29;90.72;101262.13;5065185;28;20065;-65
2023/08/09 04:03:00;;;;;;;2.78;2.67;;;18.00;99.90;;;18.29;90.70;101263.97;5062319;28;20514;-65
2023/08/09 04:05:29;;;;;;;2.97;2.88;;;17.90;99.90;;;18.30;90.82;101269.25;5064083;28;20060;-64
2023/08/09 04:08:00;;;;;;;2.65;2.55;;;17.90;99.90;;;18.31;90.73;101276.34;5064465;28;20064;-64
2023/08/09 04:10:29;;;;;;;2.75;2.65;;;17.90;99.90;;;18.32;90.84;101269.22;5067254;28;20124;-65
2023/08/09 04:12:58;;;;;;;3.00;2.90;;;18.00;99.90;;;18.33;90.74;101279.88;5060774;28;20053;-64
2023/08/09 04:15:29;;;;;;;;;;;18.00;99.90;;;18.34;90.62;101288.78;5081981;28;20079;-64
2023/08/09 04:17:58;;;;;;;3.15;3.05;;;18.00;99.90;;;18.31;90.75;101265.66;5065096;28;19928;-66
2023/08/09 04:20:27;;;;;;;3.07;2.97;;;18.00;99.90;;;18.37;90.72;101281.53;5067192;28;20098;-65
2023/08/09 04:23:00;;;;;;;2.78;2.67;;;18.00;99.90;;;18.41;90.63;101288.56;5079418;28;20303;-65
2023/08/09 04:25:28;;;;;;;3.17;3.07;;;18.00;99.90;;;18.42;90.58;101292.13;5055418;28;20049;-65
2023/08/09 04:27:57;;;;;;;2.88;2.78;;;18.00;99.90;;;18.43;90.40;101292.09;5055370;28;20299;-65
2023/08/09 04:30:25;;;;;;;3.00;2.90;;;18.10;99.90;;;18.40;90.67;101308.25;5064974;28;20063;-65
2023/08/09 04:32:55;;;;;;;2.92;2.83;;;18.10;99.90;;;18.43;90.48;101297.47;5057051;28;20593;-65
2023/08/09 04:35:24;;;;;;;3.05;2.95;;;18.00;99.90;;;18.40;90.56;101293.97;5064941;28;20063;-65
2023/08/09 04:37:52;;;;;;;2.70;2.60;;;18.10;99.90;;;18.40;90.79;101296.66;5065958;28;20044;-65
2023/08/09 04:40:20;;;;;;;3.40;3.30;;;18.00;99.90;;;18.44;90.66;101299.25;5064064;28;20040;-65
2023/08/09 04:42:49;;;;;;;2.97;2.88;;;18.10;99.90;;;18.37;91.04;101297.59;5066509;28;20094;-65
2023/08/09 04:45:19;;;;;;;3.00;2.90;;;18.00;99.90;;;18.39;91.45;101306.47;5062788;28;20053;-65
2023/08/09 04:47:48;;;;;;;2.80;2.70;;;18.00;99.90;;;18.39;91.88;101301.13;5063407;28;20083;-64
2023/08/09 04:50:19;;;;;;;3.05;2.95;;;18.00;99.90;;;18.45;92.08;101309.00;5066135;28;20059;-65
2023/08/09 04:52:47;;;;;;;3.08;2.97;;;18.10;99.90;;;18.42;92.20;101308.19;5064623;28;20057;-65
2023/08/09 04:55:16;;;;;;;3.10;3.00;;;18.10;99.90;;;18.43;92.39;101304.63;5064868;28;20090;-65
2023/08/09 04:57:44;;;;;;;3.10;3.00;;;18.00;99.90;;;18.41;92.76;101299.28;5060934;28;20550;-65
2023/08/09 05:00:14;;;;;;;2.80;2.70;;;18.00;99.90;;;18.40;92.32;101302.91;5065526;28;20045;-65
2023/08/09 05:02:43;;;;;;;3.22;3.13;;;18.00;99.90;;;18.32;92.35;101304.91;5078849;28;20494;-65
2023/08/09 05:05:12;;;;;;;2.90;2.80;;;17.90;99.90;;;18.36;92.34;101313.72;5067057;28;20071;-65
2023/08/09 05:07:41;;;;;;;3.20;3.10;;;17.90;99.90;;;18.47;92.62;101314.31;5066517;28;20045;-65
2023/08/09 05:10:11;;;;;;;2.90;2.80;;;18.00;99.90;;;18.46;92.57;101318.81;5063860;28;20048;-65
2023/08/09 05:12:39;;;;;;;3.45;3.35;;;18.00;99.90;;;18.55;92.58;101323.91;5065607;28;20076;-65
2023/08/09 05:15:09;;;;;;;2.78;2.67;;;18.10;99.90;;;18.68;92.21;101327.97;5064013;28;20182;-64
2023/08/09 05:17:37;;;;;;;2.78;2.67;;;18.20;99.90;;;18.72;91.98;101323.38;5064526;28;20147;-65
2023/08/09 05:20:08;;;;;;;3.30;3.20;;;18.30;99.90;;;18.71;91.61;101319.84;5064932;28;20045;-65
2023/08/09 05:22:36;;;;;;;3.15;3.05;;;18.30;99.90;;;18.76;91.54;101333.97;5063171;28;20045;-64
2023/08/09 05:25:06;;;;;;;2.95;2.85;;;18.40;99.90;;;18.29;91.24;101239.84;5066351;28;20076;-65
2023/08/09 05:27:35;;;;;;;3.00;2.90;;;18.40;99.90;;;18.82;91.65;101327.53;5066085;28;20490;-65
2023/08/09 05:30:05;;;;;;;2.70;2.60;;;18.40;99.90;;;18.83;91.50;101324.81;5062756;28;20498;-65
2023/08/09 05:32:33;;;;;;;2.97;2.88;;;18.40;99.90;;;18.85;91.63;101331.00;5064957;28;20583;-64
2023/08/09 05:35:02;;;;;;;3.22;3.13;;;18.50;99.90;;;18.85;91.78;101331.00;5063584;28;20409;-65
2023/08/09 05:37:30;;;;;;;2.90;2.80;;;18.50;99.90;;;18.84;92.04;101336.41;5064187;28;20044;-65
2023/08/09 05:39:59;;;;;;;3.78;3.58;;;18.50;99.90;;;18.91;91.78;101332.63;5064701;28;20045;-65
2023/08/09 05:42:28;;;;;;;3.25;3.15;;;18.50;99.90;;;18.91;91.64;101338.84;5063324;28;20048;-65
2023/08/09 05:44:59;;;;;;;2.60;2.50;;;18.50;99.90;;;18.92;92.03;101340.63;5065118;28;20044;-65
2023/08/09 05:47:27;;;;;;;3.33;3.22;;;18.50;99.90;;;18.95;92.28;101345.00;5062339;28;20118;-65
2023/08/09 05:49:55;;;;;;;3.03;2.92;;;18.50;99.90;;;19.03;92.29;101350.16;5054331;28;20037;-65
2023/08/09 05:52:24;;;;;;;2.78;2.67;;;18.70;99.90;;;19.10;91.84;101354.38;5054067;28;20048;-65
2023/08/09 05:54:53;;;;;;;2.60;2.50;;;18.70;99.90;;;18.99;91.72;101357.38;5053753;28;20170;-65
2023/08/09 05:57:21;;;;;;;3.00;2.90;;;18.70;99.90;;;19.12;91.74;101353.41;5055371;28;20060;-65
2023/08/09 05:59:51;;;;;;;2.80;2.70;;;18.70;99.90;;;19.19;92.29;101359.44;5063753;28;20048;-65
2023/08/09 06:02:19;;;;;;;2.90;2.80;;;18.80;99.90;;;19.31;92.55;101365.31;5063761;28;20064;-64
2023/08/09 06:04:48;;;;;;;2.75;2.65;;;18.90;99.90;;;19.43;92.67;101373.00;5062682;28;20047;-65
2023/08/09 06:07:17;;;;;;;2.67;2.58;;;19.10;99.90;;;19.56;92.87;101373.47;5064644;28;20083;-64
2023/08/09 06:09:45;;;;;;;2.95;2.85;;;19.20;99.90;;;19.62;92.27;101381.31;5061854;28;20052;-65
2023/08/09 06:12:30;;;;;;;2.72;2.63;;;19.30;99.90;;;19.74;92.07;101378.22;5063662;28;20041;-66
2023/08/09 06:15:00;;;;;;;2.85;2.75;;;19.40;99.90;;;19.77;91.37;101360.19;5062599;28;20040;-65
2023/08/09 06:17:29;;;;;;;2.83;2.73;;;19.40;99.90;;;19.86;91.70;101358.97;5064341;28;20387;-65
2023/08/09 06:19:57;;;;;;;2.95;2.85;;;19.50;99.90;;;19.98;91.97;101372.00;5061686;28;20379;-65
2023/08/09 06:22:26;;;;;;;2.78;2.67;;;19.60;99.90;;;20.12;91.86;101377.75;5061743;28;20102;-64
2023/08/09 06:24:54;;;;;;;2.88;2.78;;;19.80;99.90;;;20.32;92.09;101388.72;5077113;28;20052;-66
2023/08/09 06:27:23;;;;;;;2.97;2.88;;;19.90;99.90;;;20.47;91.68;101390.84;5064937;28;20040;-65
2023/08/09 06:29:51;;;;;;;2.63;2.53;;;20.20;99.90;;;20.59;91.32;101386.81;5062464;28;20402;-65
2023/08/09 06:32:21;;;;;;;3.08;2.97;;;20.20;99.90;;;20.72;90.49;101396.19;5063561;28;20052;-65
2023/08/09 06:34:50;;;;;;;;;;;20.40;99.90;;;20.84;90.10;101393.03;5063583;28;20564;-66
2023/08/09 06:37:18;;;;;;;2.90;2.80;;;20.50;99.90;;;20.92;89.54;101387.34;5062695;28;19952;-65
2023/08/09 06:39:47;;;;;;;3.28;3.17;;;20.60;99.90;;;20.95;89.26;101385.41;5063769;28;20067;-65
2023/08/09 06:42:16;;;;;;;2.72;2.63;;;20.60;99.90;;;21.01;89.04;101398.66;5061501;28;20486;-65
2023/08/09 06:44:48;;;;;;;2.90;2.80;;;20.70;99.90;;;21.13;88.55;101408.97;5060017;28;20056;-65
2023/08/09 06:47:17;;;;;;;3.35;3.22;;;20.80;99.90;;;21.13;86.90;101413.44;5064553;28;20067;-67
2023/08/09 06:49:46;;;;;;;2.58;2.47;;;20.80;99.90;;;20.59;86.71;101309.75;5062180;28;20044;-66
2023/08/09 06:52:15;;;;;;;2.80;2.70;;;20.80;99.90;;;21.17;86.24;101405.22;5063551;28;20048;-67
2023/08/09 06:54:43;;;;;;;2.53;2.42;;;20.90;99.90;;;21.22;86.35;101410.38;5062501;28;20071;-65
2023/08/09 06:57:15;;;;;;;2.58;2.47;;;20.90;99.90;;;21.32;86.70;101417.16;5061889;28;20110;-64
2023/08/09 06:59:43;;;;;;;3.08;2.97;;;20.90;99.90;;;21.37;86.28;101416.03;5063756;28;20098;-65
2023/08/09 07:02:12;;;;;;;2.78;2.67;;;21.00;99.90;;;21.46;86.76;101406.72;5060938;28;20049;-67
2023/08/09 07:04:40;;;;;;;2.88;2.78;;;21.10;99.90;;;21.63;86.59;101408.72;5064646;28;20044;-67
2023/08/09 07:07:10;;;;;;;2.70;2.60;;;21.30;99.90;;;21.64;83.75;101411.34;5051462;28;20565;-66
2023/08/09 07:09:38;;;;;;;2.45;2.35;;;21.40;99.90;;;21.69;82.91;101413.84;5052064;28;20068;-66
2023/08/09 07:12:08;;;;;;;2.85;2.75;;;21.40;99.90;;;21.81;83.27;101416.97;5052459;28;20559;-65
2023/08/09 07:14:36;;;;;;;2.60;2.50;;;21.50;99.90;;;21.98;83.54;101419.81;5057829;28;20403;-64
2023/08/09 07:17:05;;;;;;;2.97;2.88;;;21.60;99.90;;;22.07;82.74;101419.41;5062519;28;20045;-65
2023/08/09 07:19:33;;;;;;;3.08;2.88;;;21.70;99.90;;;22.09;81.71;101422.03;5062386;28;20158;-65
2023/08/09 07:22:01;;;;;;;2.78;2.67;;;21.80;99.90;;;22.17;80.76;101420.78;5063179;28;20047;-66
2023/08/09 07:24:32;;;;;;;2.70;2.60;;;21.80;99.90;;;22.16;80.53;101419.00;5060927;28;20051;-64
2023/08/09 07:27:00;;;;;;;2.80;2.70;;;21.90;99.90;;;22.03;80.66;101419.59;5064479;28;20052;-70
2023/08/09 07:29:28;;;;;;;2.42;2.33;;;21.70;99.90;;;21.99;80.56;101424.25;5071039;28;20755;-66
2023/08/09 07:31:57;;;;;;;2.45;2.35;;;21.70;99.90;;;21.83;80.53;101427.66;5056419;28;20115;-66
2023/08/09 07:34:25;;;;;;;2.65;2.55;;;21.60;99.90;;;21.74;81.07;101438.81;5061129;28;20045;-65
2023/08/09 07:36:54;;;;;;;2.70;2.60;;;21.40;99.90;;;21.64;81.77;101418.56;5063262;28;20048;-66
2023/08/09 07:39:25;;;;;;;2.90;2.80;;;21.30;99.90;;;21.71;82.53;101429.03;5062104;28;20099;-67
2023/08/09 07:41:54;;;;;;;2.40;2.30;;;21.30;99.90;;;21.78;83.13;101435.00;5061861;28;20178;-68
2023/08/09 07:44:23;;;;;;;2.67;2.58;;;21.40;99.90;;;21.74;83.56;101417.25;5063684;28;20051;-66
2023/08/09 07:46:51;;;;;;;2.50;2.40;;;21.50;99.90;;;21.95;83.21;101444.19;5060699;28;20056;-67
2023/08/09 07:49:20;;;;;;;2.50;2.40;;;21.60;99.90;;;21.84;82.42;101419.53;5063821;28;20119;-65
2023/08/09 07:51:48;;;;;;;2.42;2.33;;;21.60;99.90;;;22.06;81.60;101452.72;5052126;28;20481;-66
2023/08/09 07:54:16;;;;;;;2.47;2.38;;;21.70;99.90;;;22.00;80.27;101450.28;5052176;28;20068;-66
2023/08/09 07:56:46;;;;;;;2.35;2.25;;;21.70;99.90;;;22.07;79.96;101462.53;5052086;28;20049;-67
2023/08/09 07:59:18;;;;;;;3.00;2.90;;;21.70;99.90;;;22.07;78.76;101465.22;5053317;28;20056;-67
2023/08/09 08:01:48;;;;;;;2.50;2.40;;;21.80;99.90;;;22.13;78.73;101464.97;5061504;28;20101;-66
2023/08/09 08:04:16;;;;;;;7.25;4.28;;;21.80;99.90;;;22.12;78.35;101465.94;5062816;28;20470;-66
2023/08/09 08:06:46;;;;;;;2.63;2.53;;;21.80;99.90;;;22.27;78.24;101473.34;5060627;28;20506;-67
2023/08/09 08:09:14;;;;;;;2.85;2.75;;;21.90;99.90;;;22.29;77.91;101479.56;5058890;28;20080;-67
2023/08/09 08:11:43;;;;;;;2.67;2.58;;;22.00;99.90;;;22.14;77.74;101473.94;5052496;28;20067;-68
2023/08/09 08:14:11;;;;;;;2.70;2.60;;;21.80;99.90;;;21.82;78.71;101485.16;5051828;28;20049;-68
2023/08/09 08:16:43;;;;;;;;;;;21.60;99.90;;;21.86;78.29;101487.69;5052398;28;20110;-66
2023/08/09 08:19:11;;;;;;;2.50;2.40;;;21.60;99.90;;;21.90;77.00;101489.31;5053446;28;19924;-66
2023/08/09 08:21:40;;;;;;;2.92;2.83;;;21.60;99.90;;;21.95;77.13;101486.44;5063879;28;20127;-65
2023/08/09 08:24:09;;;;;;;2.65;2.55;;;21.60;99.90;;;22.17;77.13;101489.97;5066418;28;20056;-66
2023/08/09 08:26:37;;;;;;;2.50;2.40;;;21.90;99.90;;;22.29;76.12;101487.66;5064543;28;20107;-66
2023/08/09 08:29:06;;;;;;;2.63;2.53;;;22.00;99.90;;;22.50;76.14;101493.03;5066622;28;20393;-66
2023/08/09 08:31:34;;;;;;;2.40;2.30;;;22.20;99.90;;;22.67;75.50;101499.47;5063619;28;20045;-66
2023/08/09 08:34:06;;;;;;;2.70;2.60;;;22.40;99.90;;;22.15;75.40;101403.78;5055484;28;20132;-66
2023/08/09 08:36:34;;;;;;;2.65;2.55;;;22.40;99.90;;;22.36;73.13;101483.72;5055010;28;20087;-66
2023/08/09 08:39:05;;;;;;;2.95;2.85;;;22.20;99.90;;;22.14;73.45;101508.97;5055120;28;20486;-65
2023/08/09 08:41:34;;;;;;;2.88;2.78;;;21.90;99.90;;;22.22;74.56;101501.47;5057197;28;20068;-66
2023/08/09 08:44:05;;;;;;;3.38;3.28;;;21.90;99.90;;;22.24;73.01;101503.13;5064947;28;20040;-66
2023/08/09 08:46:35;;;;;;;2.78;2.67;;;22.00;99.90;;;22.33;73.20;101509.97;5066529;28;20049;-66
2023/08/09 08:49:05;;;;;;;2.60;2.50;;;22.00;99.90;;;22.61;74.50;101512.38;5063330;28;20075;-66
2023/08/09 08:51:36;;;;;;;2.42;2.33;;;22.30;99.90;;;22.88;73.17;101509.31;5055071;28;20045;-66
2023/08/09 08:54:05;;;;;;;3.22;3.13;;;22.60;99.90;;;23.16;71.76;101522.44;5054858;28;20048;-66
2023/08/09 08:56:34;;;;;;;2.60;2.50;;;22.90;99.90;;;23.40;69.88;101528.56;5054834;28;20072;-66
2023/08/09 08:59:02;;;;;;;2.47;2.38;;;23.20;99.90;;;23.55;68.47;101526.03;5055065;28;20045;-66
2023/08/09 09:01:32;;;;;;;3.10;2.90;;;23.30;99.90;;;23.02;67.61;101527.59;5062868;28;20470;-66
2023/08/09 09:04:01;;;;;;;2.60;2.50;;;22.90;99.90;;;22.91;68.85;101524.50;5060935;28;20061;-66
2023/08/09 09:06:32;;;;;;;3.08;2.88;;;22.70;99.90;;;22.72;70.42;101520.88;5065968;28;20478;-67
2023/08/09 09:09:00;;;;;;;2.50;2.40;;;22.50;99.90;;;22.12;72.02;101533.31;5054980;28;20468;-66
2023/08/09 09:11:29;;;;;;;2.70;2.60;;;22.00;99.90;;;21.75;73.99;101522.22;5054595;28;20064;-66
2023/08/09 09:13:57;;;;;;;2.85;2.75;;;21.60;99.90;;;21.77;75.59;101519.47;5054513;28;20073;-66
2023/08/09 09:16:26;;;;;;;3.05;2.95;;;21.40;99.90;;;21.85;76.57;101520.97;5079329;28;20052;-66
2023/08/09 09:18:54;;;;;;;2.88;2.78;;;21.60;99.90;;;21.88;75.59;101526.22;5071848;28;20450;-66
2023/08/09 09:21:34;;;;;;;15.98;3.03;;;21.60;99.90;;;21.65;74.91;101522.63;5064309;28;20072;-67
2023/08/09 09:24:08;;;;;;;2.85;2.75;;;21.50;99.90;;;21.37;75.79;101538.97;5078742;28;20497;-68
2023/08/09 09:26:39;;;;;;;3.03;2.83;;;21.20;99.90;;;21.31;76.37;101536.56;5063937;28;20051;-66
2023/08/09 09:29:09;;;;;;;2.60;2.50;;;21.00;99.90;;;21.57;74.88;101531.03;5071312;28;20040;-66
2023/08/09 09:31:40;;;;;;;2.97;2.88;;;21.30;99.90;;;21.13;75.19;101408.97;5064777;28;20045;-66
2023/08/09 09:34:09;;;;;;;2.70;2.60;;;21.50;99.90;;;21.78;73.83;101527.47;5063405;28;20052;-66
2023/08/09 09:36:49;;;;;;;6.88;6.35;;;21.50;99.90;;;21.94;74.81;101528.66;5065756;28;20459;-67
2023/08/09 09:39:18;;;;;;;2.97;2.88;;;21.70;99.90;;;22.01;74.22;101530.16;5054193;28;20045;-66
2023/08/09 09:41:49;;;;;;;2.53;2.42;;;21.80;99.90;;;22.04;73.59;101540.81;5054523;28;20083;-66
2023/08/09 09:44:19;;;;;;;3.33;3.05;;;21.70;99.90;;;21.81;72.70;101538.19;5054006;28;20037;-65
2023/08/09 09:46:54;;;;;;;3.20;3.10;;;21.60;99.90;;;21.72;73.23;101538.50;5057206;28;20401;-66
2023/08/09 09:49:24;;;;;;;3.03;2.92;;;21.40;99.90;;;21.75;72.19;101543.78;5062397;28;20136;-65
2023/08/09 09:51:56;;;;;;;2.75;2.65;;;21.40;99.90;;;21.70;72.08;101544.91;5064688;28;20139;-65
2023/08/09 09:54:25;;;;;;;2.90;2.80;;;21.30;99.90;;;21.95;72.18;101543.03;5063754;28;20128;-66
2023/08/09 09:56:53;;;;;;;2.55;2.45;;;21.60;99.90;;;22.16;72.13;101553.78;5063437;28;20101;-65
2023/08/09 09:59:22;;;;;;;2.78;2.67;;;21.80;99.90;;;22.07;70.72;101554.16;5064333;28;20071;-66
2023/08/09 10:01:51;;;;;;;3.38;3.08;;;21.80;99.90;;;21.88;70.18;101550.47;5062034;28;20048;-66
2023/08/09 10:04:21;;;;;;;2.85;2.75;;;21.60;99.90;;;21.85;71.30;101561.38;5065239;28;20044;-66
2023/08/09 10:06:50;;;;;;;2.70;2.60;;;21.60;99.90;;;22.09;71.76;101559.47;5053404;28;20044;-66
2023/08/09 10:09:21;;;;;;;2.70;2.60;;;21.70;99.90;;;22.07;70.30;101572.13;5053671;28;20117;-66
2023/08/09 10:11:53;;;;;;;3.28;3.17;;;21.70;99.90;;;22.32;70.13;101576.47;5053531;28;20116;-65
2023/08/09 10:14:24;;;;;;;3.60;3.40;;;21.90;99.90;;;22.38;67.82;101581.63;5053301;28;20041;-66
2023/08/09 10:16:52;;;;;;;3.25;3.15;;;22.10;99.90;;;22.56;68.65;101571.88;5080076;28;20402;-66
2023/08/09 10:19:33;;;;;;;;;;;22.30;99.90;;;22.83;67.12;101584.22;5062855;28;20064;-66
2023/08/09 10:22:03;;;;;;;2.80;2.70;;;22.50;99.90;;;22.86;67.10;101592.16;5063660;28;19959;-65